sensor_id;sensor_type;location;lat;lon;timestamp;P1;durP1;ratioP1;P2;durP2;ratioP2
32393;SDS011;18853;45.426;9.206;2022-12-07T00:01:29;25.40;;;19.02;;
32393;SDS011;18853;45.426;9.206;2022-12-07T00:04:04;26.58;;;19.50;;
32393;SDS011;18853;45.426;9.206;2022-12-07T00:06:32;27.90;;;19.83;;
32393;SDS011;18853;45.426;9.206;2022-12-07T00:09:02;29.60;;;21.92;;
32393;SDS011;18853;45.426;9.206;2022-12-07T00:11:28;27.88;;;20.85;;
32393;SDS011;18853;45.426;9.206;2022-12-07T00:13:55;29.73;;;21.17;;
32393;SDS011;18853;45.426;9.206;2022-12-07T00:16:25;28.88;;;21.58;;
32393;SDS011;18853;45.426;9.206;2022-12-07T00:18:53;27.90;;;20.48;;
32393;SDS011;18853;45.426;9.206;2022-12-07T00:21:20;27.38;;;20.27;;
32393;SDS011;18853;45.426;9.206;2022-12-07T00:23:48;27.25;;;21.67;;
32393;SDS011;18853;45.426;9.206;2022-12-07T00:26:16;26.80;;;19.95;;
32393;SDS011;18853;45.426;9.206;2022-12-07T00:28:53;29.67;;;19.98;;
32393;SDS011;18853;45.426;9.206;2022-12-07T00:31:25;25.15;;;19.80;;
32393;SDS011;18853;45.426;9.206;2022-12-07T00:33:52;29.25;;;21.98;;
32393;SDS011;18853;45.426;9.206;2022-12-07T00:36:19;27.75;;;21.15;;
32393;SDS011;18853;45.426;9.206;2022-12-07T00:38:46;26.73;;;20.88;;
32393;SDS011;18853;45.426;9.206;2022-12-07T00:41:13;29.38;;;20.98;;
32393;SDS011;18853;45.426;9.206;2022-12-07T00:43:41;25.45;;;20.45;;
32393;SDS011;18853;45.426;9.206;2022-12-07T00:46:07;25.88;;;20.85;;
32393;SDS011;18853;45.426;9.206;2022-12-07T00:48:33;27.38;;;21.35;;
32393;SDS011;18853;45.426;9.206;2022-12-07T00:50:59;22.73;;;19.52;;
32393;SDS011;18853;45.426;9.206;2022-12-07T00:53:26;23.10;;;19.50;;
32393;SDS011;18853;45.426;9.206;2022-12-07T00:55:52;22.45;;;19.45;;
32393;SDS011;18853;45.426;9.206;2022-12-07T00:58:18;23.70;;;19.77;;
32393;SDS011;18853;45.426;9.206;2022-12-07T01:00:44;26.58;;;21.30;;
32393;SDS011;18853;45.426;9.206;2022-12-07T01:03:11;26.52;;;20.77;;
32393;SDS011;18853;45.426;9.206;2022-12-07T01:05:38;24.58;;;20.35;;
32393;SDS011;18853;45.426;9.206;2022-12-07T01:08:05;27.08;;;20.90;;
32393;SDS011;18853;45.426;9.206;2022-12-07T01:10:31;25.50;;;20.20;;
32393;SDS011;18853;45.426;9.206;2022-12-07T01:12:57;26.50;;;19.98;;
32393;SDS011;18853;45.426;9.206;2022-12-07T01:15:23;26.88;;;20.48;;
32393;SDS011;18853;45.426;9.206;2022-12-07T01:17:50;25.38;;;20.38;;
32393;SDS011;18853;45.426;9.206;2022-12-07T01:20:15;29.70;;;21.58;;
32393;SDS011;18853;45.426;9.206;2022-12-07T01:22:42;25.73;;;20.15;;
32393;SDS011;18853;45.426;9.206;2022-12-07T01:25:09;23.27;;;19.70;;
32393;SDS011;18853;45.426;9.206;2022-12-07T01:27:36;20.55;;;17.35;;
32393;SDS011;18853;45.426;9.206;2022-12-07T01:30:03;21.17;;;17.77;;
32393;SDS011;18853;45.426;9.206;2022-12-07T01:32:30;20.45;;;17.10;;
32393;SDS011;18853;45.426;9.206;2022-12-07T01:34:56;19.08;;;16.58;;
32393;SDS011;18853;45.426;9.206;2022-12-07T01:37:22;19.70;;;17.02;;
32393;SDS011;18853;45.426;9.206;2022-12-07T01:39:49;21.08;;;17.92;;
32393;SDS011;18853;45.426;9.206;2022-12-07T01:42:17;20.65;;;17.50;;
32393;SDS011;18853;45.426;9.206;2022-12-07T01:47:43;22.38;;;18.98;;
32393;SDS011;18853;45.426;9.206;2022-12-07T01:50:16;25.00;;;20.42;;
32393;SDS011;18853;45.426;9.206;2022-12-07T01:52:43;28.27;;;21.27;;
32393;SDS011;18853;45.426;9.206;2022-12-07T01:55:11;26.85;;;22.23;;
32393;SDS011;18853;45.426;9.206;2022-12-07T01:57:41;28.00;;;20.63;;
32393;SDS011;18853;45.426;9.206;2022-12-07T02:00:11;26.52;;;21.25;;
32393;SDS011;18853;45.426;9.206;2022-12-07T02:02:39;31.90;;;23.65;;
32393;SDS011;18853;45.426;9.206;2022-12-07T02:05:25;28.27;;;21.75;;
32393;SDS011;18853;45.426;9.206;2022-12-07T02:07:52;28.88;;;22.02;;
32393;SDS011;18853;45.426;9.206;2022-12-07T02:10:24;26.75;;;20.38;;
32393;SDS011;18853;45.426;9.206;2022-12-07T02:13:02;21.50;;;18.40;;
32393;SDS011;18853;45.426;9.206;2022-12-07T02:15:38;20.75;;;17.63;;
32393;SDS011;18853;45.426;9.206;2022-12-07T02:23:37;19.20;;;16.10;;
32393;SDS011;18853;45.426;9.206;2022-12-07T02:31:50;19.55;;;16.55;;
32393;SDS011;18853;45.426;9.206;2022-12-07T02:34:48;18.70;;;16.58;;
32393;SDS011;18853;45.426;9.206;2022-12-07T02:39:55;21.30;;;17.45;;
32393;SDS011;18853;45.426;9.206;2022-12-07T02:42:34;23.35;;;17.85;;
32393;SDS011;18853;45.426;9.206;2022-12-07T02:45:05;27.35;;;20.65;;
32393;SDS011;18853;45.426;9.206;2022-12-07T02:47:33;27.50;;;20.27;;
32393;SDS011;18853;45.426;9.206;2022-12-07T02:50:05;29.58;;;21.65;;
32393;SDS011;18853;45.426;9.206;2022-12-07T02:52:31;24.20;;;18.73;;
32393;SDS011;18853;45.426;9.206;2022-12-07T02:54:57;23.00;;;18.45;;
32393;SDS011;18853;45.426;9.206;2022-12-07T03:07:52;21.23;;;17.25;;
32393;SDS011;18853;45.426;9.206;2022-12-07T03:10:59;22.98;;;17.75;;
32393;SDS011;18853;45.426;9.206;2022-12-07T03:21:40;18.80;;;15.90;;
32393;SDS011;18853;45.426;9.206;2022-12-07T03:24:10;18.30;;;15.80;;
32393;SDS011;18853;45.426;9.206;2022-12-07T03:26:41;17.08;;;15.27;;
32393;SDS011;18853;45.426;9.206;2022-12-07T03:29:14;18.35;;;16.13;;
32393;SDS011;18853;45.426;9.206;2022-12-07T03:31:47;20.95;;;16.02;;
32393;SDS011;18853;45.426;9.206;2022-12-07T03:34:26;21.02;;;16.40;;
32393;SDS011;18853;45.426;9.206;2022-12-07T03:37:06;19.33;;;16.33;;
32393;SDS011;18853;45.426;9.206;2022-12-07T03:39:50;19.73;;;15.57;;
32393;SDS011;18853;45.426;9.206;2022-12-07T03:42:27;20.92;;;16.35;;
32393;SDS011;18853;45.426;9.206;2022-12-07T03:44:54;18.83;;;16.50;;
32393;SDS011;18853;45.426;9.206;2022-12-07T03:47:26;19.65;;;16.67;;
32393;SDS011;18853;45.426;9.206;2022-12-07T03:50:02;16.95;;;14.98;;
32393;SDS011;18853;45.426;9.206;2022-12-07T03:52:54;21.58;;;16.52;;
32393;SDS011;18853;45.426;9.206;2022-12-07T03:55:28;19.40;;;16.52;;
32393;SDS011;18853;45.426;9.206;2022-12-07T03:57:58;17.88;;;15.93;;
32393;SDS011;18853;45.426;9.206;2022-12-07T04:00:27;20.55;;;15.82;;
32393;SDS011;18853;45.426;9.206;2022-12-07T04:02:54;20.90;;;15.73;;
32393;SDS011;18853;45.426;9.206;2022-12-07T04:05:21;18.60;;;16.10;;
32393;SDS011;18853;45.426;9.206;2022-12-07T04:07:47;17.25;;;14.98;;
32393;SDS011;18853;45.426;9.206;2022-12-07T04:10:13;18.50;;;14.27;;
32393;SDS011;18853;45.426;9.206;2022-12-07T04:12:38;17.50;;;14.10;;
32393;SDS011;18853;45.426;9.206;2022-12-07T04:15:04;18.13;;;14.98;;
32393;SDS011;18853;45.426;9.206;2022-12-07T04:17:31;16.95;;;15.10;;
32393;SDS011;18853;45.426;9.206;2022-12-07T04:19:56;18.98;;;15.65;;
32393;SDS011;18853;45.426;9.206;2022-12-07T04:22:22;19.40;;;15.70;;
32393;SDS011;18853;45.426;9.206;2022-12-07T04:24:48;17.50;;;15.65;;
32393;SDS011;18853;45.426;9.206;2022-12-07T04:27:13;17.52;;;15.25;;
32393;SDS011;18853;45.426;9.206;2022-12-07T04:29:39;17.90;;;15.90;;
32393;SDS011;18853;45.426;9.206;2022-12-07T04:32:06;23.80;;;17.20;;
32393;SDS011;18853;45.426;9.206;2022-12-07T04:34:32;25.13;;;17.88;;
32393;SDS011;18853;45.426;9.206;2022-12-07T04:36:57;20.95;;;17.80;;
32393;SDS011;18853;45.426;9.206;2022-12-07T04:39:33;20.63;;;16.98;;
32393;SDS011;18853;45.426;9.206;2022-12-07T04:46:51;18.60;;;14.95;;
32393;SDS011;18853;45.426;9.206;2022-12-07T04:49:17;30.70;;;16.15;;
32393;SDS011;18853;45.426;9.206;2022-12-07T04:51:44;23.15;;;15.90;;
32393;SDS011;18853;45.426;9.206;2022-12-07T04:54:10;23.23;;;15.68;;
32393;SDS011;18853;45.426;9.206;2022-12-07T04:56:37;17.90;;;15.98;;
32393;SDS011;18853;45.426;9.206;2022-12-07T04:59:03;18.48;;;15.63;;
32393;SDS011;18853;45.426;9.206;2022-12-07T05:01:29;20.63;;;17.02;;
32393;SDS011;18853;45.426;9.206;2022-12-07T05:03:55;19.60;;;15.75;;
32393;SDS011;18853;45.426;9.206;2022-12-07T05:06:21;19.67;;;16.20;;
32393;SDS011;18853;45.426;9.206;2022-12-07T05:08:46;24.10;;;16.52;;
32393;SDS011;18853;45.426;9.206;2022-12-07T05:11:12;30.70;;;17.98;;
32393;SDS011;18853;45.426;9.206;2022-12-07T05:13:59;20.80;;;17.60;;
32393;SDS011;18853;45.426;9.206;2022-12-07T05:16:26;20.95;;;16.50;;
32393;SDS011;18853;45.426;9.206;2022-12-07T05:18:52;20.58;;;16.77;;
32393;SDS011;18853;45.426;9.206;2022-12-07T05:21:17;20.05;;;16.65;;
32393;SDS011;18853;45.426;9.206;2022-12-07T05:23:43;19.90;;;16.15;;
32393;SDS011;18853;45.426;9.206;2022-12-07T05:26:10;19.05;;;16.30;;
32393;SDS011;18853;45.426;9.206;2022-12-07T05:28:38;31.88;;;17.23;;
32393;SDS011;18853;45.426;9.206;2022-12-07T05:31:03;20.58;;;16.55;;
32393;SDS011;18853;45.426;9.206;2022-12-07T05:33:29;22.23;;;17.90;;
32393;SDS011;18853;45.426;9.206;2022-12-07T05:35:55;88.85;;;20.27;;
32393;SDS011;18853;45.426;9.206;2022-12-07T05:38:21;71.03;;;19.98;;
32393;SDS011;18853;45.426;9.206;2022-12-07T05:40:47;21.10;;;16.52;;
32393;SDS011;18853;45.426;9.206;2022-12-07T05:43:12;22.67;;;17.95;;
32393;SDS011;18853;45.426;9.206;2022-12-07T05:45:38;27.52;;;17.35;;
32393;SDS011;18853;45.426;9.206;2022-12-07T05:48:04;22.88;;;17.58;;
32393;SDS011;18853;45.426;9.206;2022-12-07T05:50:30;21.73;;;17.17;;
32393;SDS011;18853;45.426;9.206;2022-12-07T05:52:57;58.45;;;19.50;;
32393;SDS011;18853;45.426;9.206;2022-12-07T05:55:22;44.35;;;18.17;;
32393;SDS011;18853;45.426;9.206;2022-12-07T05:57:48;38.40;;;18.05;;
32393;SDS011;18853;45.426;9.206;2022-12-07T06:00:35;25.13;;;16.90;;
32393;SDS011;18853;45.426;9.206;2022-12-07T06:03:01;35.35;;;18.70;;
32393;SDS011;18853;45.426;9.206;2022-12-07T06:05:28;55.38;;;18.50;;
32393;SDS011;18853;45.426;9.206;2022-12-07T06:07:54;19.02;;;15.68;;
32393;SDS011;18853;45.426;9.206;2022-12-07T06:10:19;19.98;;;16.15;;
32393;SDS011;18853;45.426;9.206;2022-12-07T06:12:46;19.48;;;15.77;;
32393;SDS011;18853;45.426;9.206;2022-12-07T06:15:12;18.65;;;15.25;;
32393;SDS011;18853;45.426;9.206;2022-12-07T06:17:39;20.13;;;16.60;;
32393;SDS011;18853;45.426;9.206;2022-12-07T06:20:06;21.50;;;16.30;;
32393;SDS011;18853;45.426;9.206;2022-12-07T06:22:32;22.42;;;17.08;;
32393;SDS011;18853;45.426;9.206;2022-12-07T06:25:00;20.60;;;16.23;;
32393;SDS011;18853;45.426;9.206;2022-12-07T06:27:29;22.77;;;17.20;;
32393;SDS011;18853;45.426;9.206;2022-12-07T06:29:57;19.55;;;15.48;;
32393;SDS011;18853;45.426;9.206;2022-12-07T06:32:23;19.55;;;16.25;;
32393;SDS011;18853;45.426;9.206;2022-12-07T06:34:49;30.63;;;15.50;;
32393;SDS011;18853;45.426;9.206;2022-12-07T06:37:16;108.70;;;19.92;;
32393;SDS011;18853;45.426;9.206;2022-12-07T06:39:42;32.47;;;17.77;;
32393;SDS011;18853;45.426;9.206;2022-12-07T06:42:08;34.13;;;18.20;;
32393;SDS011;18853;45.426;9.206;2022-12-07T06:44:35;40.33;;;19.13;;
32393;SDS011;18853;45.426;9.206;2022-12-07T06:47:00;25.65;;;16.80;;
32393;SDS011;18853;45.426;9.206;2022-12-07T06:49:28;24.67;;;18.27;;
32393;SDS011;18853;45.426;9.206;2022-12-07T06:51:53;25.42;;;18.83;;
32393;SDS011;18853;45.426;9.206;2022-12-07T06:54:20;23.55;;;17.20;;
32393;SDS011;18853;45.426;9.206;2022-12-07T06:56:46;25.25;;;16.88;;
32393;SDS011;18853;45.426;9.206;2022-12-07T06:59:12;22.27;;;16.70;;
32393;SDS011;18853;45.426;9.206;2022-12-07T07:01:37;23.27;;;16.08;;
32393;SDS011;18853;45.426;9.206;2022-12-07T07:04:03;22.90;;;16.55;;
32393;SDS011;18853;45.426;9.206;2022-12-07T07:06:29;22.15;;;16.40;;
32393;SDS011;18853;45.426;9.206;2022-12-07T07:08:55;23.27;;;17.30;;
32393;SDS011;18853;45.426;9.206;2022-12-07T07:11:20;21.83;;;16.70;;
32393;SDS011;18853;45.426;9.206;2022-12-07T07:13:46;62.40;;;19.73;;
32393;SDS011;18853;45.426;9.206;2022-12-07T07:16:12;23.63;;;17.35;;
32393;SDS011;18853;45.426;9.206;2022-12-07T07:18:38;23.42;;;17.85;;
32393;SDS011;18853;45.426;9.206;2022-12-07T07:21:03;27.45;;;18.35;;
32393;SDS011;18853;45.426;9.206;2022-12-07T07:23:29;24.20;;;17.73;;
32393;SDS011;18853;45.426;9.206;2022-12-07T07:25:55;138.52;;;23.83;;
32393;SDS011;18853;45.426;9.206;2022-12-07T07:28:21;69.03;;;21.05;;
32393;SDS011;18853;45.426;9.206;2022-12-07T07:30:47;27.30;;;19.02;;
32393;SDS011;18853;45.426;9.206;2022-12-07T07:33:13;26.98;;;19.35;;
32393;SDS011;18853;45.426;9.206;2022-12-07T07:35:38;26.58;;;18.88;;
32393;SDS011;18853;45.426;9.206;2022-12-07T07:38:04;26.88;;;19.70;;
32393;SDS011;18853;45.426;9.206;2022-12-07T07:40:30;26.30;;;18.98;;
32393;SDS011;18853;45.426;9.206;2022-12-07T07:42:56;27.50;;;19.90;;
32393;SDS011;18853;45.426;9.206;2022-12-07T07:45:22;25.98;;;19.52;;
32393;SDS011;18853;45.426;9.206;2022-12-07T07:47:50;24.77;;;19.27;;
32393;SDS011;18853;45.426;9.206;2022-12-07T07:50:16;69.15;;;20.85;;
32393;SDS011;18853;45.426;9.206;2022-12-07T07:52:42;24.50;;;18.17;;
32393;SDS011;18853;45.426;9.206;2022-12-07T07:55:09;37.50;;;19.48;;
32393;SDS011;18853;45.426;9.206;2022-12-07T07:57:38;24.65;;;18.70;;
32393;SDS011;18853;45.426;9.206;2022-12-07T08:00:06;24.60;;;17.38;;
32393;SDS011;18853;45.426;9.206;2022-12-07T08:02:34;23.88;;;17.77;;
32393;SDS011;18853;45.426;9.206;2022-12-07T08:04:59;53.55;;;20.13;;
32393;SDS011;18853;45.426;9.206;2022-12-07T08:07:26;29.67;;;19.30;;
32393;SDS011;18853;45.426;9.206;2022-12-07T08:09:52;23.08;;;18.13;;
32393;SDS011;18853;45.426;9.206;2022-12-07T08:12:18;27.27;;;19.58;;
32393;SDS011;18853;45.426;9.206;2022-12-07T08:14:44;22.92;;;18.58;;
32393;SDS011;18853;45.426;9.206;2022-12-07T08:17:10;24.67;;;19.33;;
32393;SDS011;18853;45.426;9.206;2022-12-07T08:19:36;24.35;;;18.52;;
32393;SDS011;18853;45.426;9.206;2022-12-07T08:22:01;27.60;;;19.52;;
32393;SDS011;18853;45.426;9.206;2022-12-07T08:24:27;28.77;;;20.15;;
32393;SDS011;18853;45.426;9.206;2022-12-07T08:26:53;23.85;;;18.95;;
32393;SDS011;18853;45.426;9.206;2022-12-07T08:29:18;28.05;;;19.95;;
32393;SDS011;18853;45.426;9.206;2022-12-07T08:31:44;53.78;;;20.90;;
32393;SDS011;18853;45.426;9.206;2022-12-07T08:34:11;26.75;;;19.88;;
32393;SDS011;18853;45.426;9.206;2022-12-07T08:36:37;31.33;;;21.00;;
32393;SDS011;18853;45.426;9.206;2022-12-07T08:39:03;27.98;;;20.52;;
32393;SDS011;18853;45.426;9.206;2022-12-07T08:41:28;32.67;;;21.00;;
32393;SDS011;18853;45.426;9.206;2022-12-07T08:43:54;30.77;;;21.52;;
32393;SDS011;18853;45.426;9.206;2022-12-07T08:46:24;31.30;;;21.90;;
32393;SDS011;18853;45.426;9.206;2022-12-07T08:49:05;29.08;;;21.10;;
32393;SDS011;18853;45.426;9.206;2022-12-07T08:51:38;30.67;;;21.65;;
32393;SDS011;18853;45.426;9.206;2022-12-07T08:54:05;29.70;;;22.25;;
32393;SDS011;18853;45.426;9.206;2022-12-07T08:56:34;29.08;;;21.55;;
32393;SDS011;18853;45.426;9.206;2022-12-07T08:59:00;28.80;;;20.92;;
32393;SDS011;18853;45.426;9.206;2022-12-07T09:01:26;38.97;;;22.75;;
32393;SDS011;18853;45.426;9.206;2022-12-07T09:03:52;27.55;;;20.63;;
32393;SDS011;18853;45.426;9.206;2022-12-07T09:06:18;28.08;;;20.80;;
32393;SDS011;18853;45.426;9.206;2022-12-07T09:08:46;50.20;;;24.02;;
32393;SDS011;18853;45.426;9.206;2022-12-07T09:11:13;33.25;;;22.60;;
32393;SDS011;18853;45.426;9.206;2022-12-07T09:13:38;33.90;;;22.10;;
32393;SDS011;18853;45.426;9.206;2022-12-07T09:16:04;76.60;;;24.75;;
32393;SDS011;18853;45.426;9.206;2022-12-07T09:18:31;33.95;;;22.55;;
32393;SDS011;18853;45.426;9.206;2022-12-07T09:20:57;27.95;;;21.38;;
32393;SDS011;18853;45.426;9.206;2022-12-07T09:23:22;28.65;;;21.85;;
32393;SDS011;18853;45.426;9.206;2022-12-07T09:25:48;32.63;;;23.48;;
32393;SDS011;18853;45.426;9.206;2022-12-07T09:28:14;35.90;;;22.90;;
32393;SDS011;18853;45.426;9.206;2022-12-07T09:30:45;33.70;;;24.08;;
32393;SDS011;18853;45.426;9.206;2022-12-07T09:33:11;31.85;;;23.65;;
32393;SDS011;18853;45.426;9.206;2022-12-07T09:35:37;33.60;;;24.17;;
32393;SDS011;18853;45.426;9.206;2022-12-07T09:38:03;30.83;;;23.38;;
32393;SDS011;18853;45.426;9.206;2022-12-07T09:40:28;33.17;;;23.98;;
32393;SDS011;18853;45.426;9.206;2022-12-07T09:42:54;40.28;;;24.73;;
32393;SDS011;18853;45.426;9.206;2022-12-07T09:47:52;40.03;;;26.35;;
32393;SDS011;18853;45.426;9.206;2022-12-07T09:50:23;33.88;;;25.52;;
32393;SDS011;18853;45.426;9.206;2022-12-07T09:52:51;41.50;;;27.95;;
32393;SDS011;18853;45.426;9.206;2022-12-07T09:55:23;46.15;;;27.50;;
32393;SDS011;18853;45.426;9.206;2022-12-07T09:57:52;42.75;;;28.00;;
32393;SDS011;18853;45.426;9.206;2022-12-07T10:00:19;40.78;;;25.88;;
32393;SDS011;18853;45.426;9.206;2022-12-07T10:02:50;37.63;;;26.48;;
32393;SDS011;18853;45.426;9.206;2022-12-07T10:05:27;68.75;;;28.52;;
32393;SDS011;18853;45.426;9.206;2022-12-07T10:08:00;36.00;;;26.05;;
32393;SDS011;18853;45.426;9.206;2022-12-07T10:10:30;36.95;;;26.70;;
32393;SDS011;18853;45.426;9.206;2022-12-07T10:12:58;36.95;;;26.63;;
32393;SDS011;18853;45.426;9.206;2022-12-07T10:15:50;55.08;;;28.58;;
32393;SDS011;18853;45.426;9.206;2022-12-07T10:18:38;35.90;;;26.80;;
32393;SDS011;18853;45.426;9.206;2022-12-07T10:21:22;54.20;;;29.05;;
32393;SDS011;18853;45.426;9.206;2022-12-07T10:28:53;48.88;;;29.52;;
32393;SDS011;18853;45.426;9.206;2022-12-07T10:31:20;33.95;;;26.70;;
32393;SDS011;18853;45.426;9.206;2022-12-07T10:33:52;35.30;;;27.33;;
32393;SDS011;18853;45.426;9.206;2022-12-07T10:38:47;40.30;;;28.10;;
32393;SDS011;18853;45.426;9.206;2022-12-07T10:41:58;33.85;;;27.17;;
32393;SDS011;18853;45.426;9.206;2022-12-07T10:44:29;51.58;;;27.92;;
32393;SDS011;18853;45.426;9.206;2022-12-07T10:47:18;35.47;;;26.85;;
32393;SDS011;18853;45.426;9.206;2022-12-07T11:14:39;43.25;;;30.17;;
32393;SDS011;18853;45.426;9.206;2022-12-07T11:17:26;53.65;;;29.65;;
32393;SDS011;18853;45.426;9.206;2022-12-07T11:26:13;42.20;;;29.65;;
32393;SDS011;18853;45.426;9.206;2022-12-07T11:32:17;40.55;;;28.30;;
32393;SDS011;18853;45.426;9.206;2022-12-07T11:34:59;45.30;;;29.10;;
32393;SDS011;18853;45.426;9.206;2022-12-07T11:37:47;39.10;;;27.25;;
32393;SDS011;18853;45.426;9.206;2022-12-07T11:40:20;39.08;;;27.50;;
32393;SDS011;18853;45.426;9.206;2022-12-07T11:45:46;42.10;;;28.52;;
32393;SDS011;18853;45.426;9.206;2022-12-07T11:48:24;39.30;;;27.20;;
32393;SDS011;18853;45.426;9.206;2022-12-07T11:50:59;42.45;;;28.55;;
32393;SDS011;18853;45.426;9.206;2022-12-07T11:53:36;38.17;;;27.23;;
32393;SDS011;18853;45.426;9.206;2022-12-07T11:56:16;39.10;;;28.35;;
32393;SDS011;18853;45.426;9.206;2022-12-07T12:02:00;38.63;;;28.83;;
32393;SDS011;18853;45.426;9.206;2022-12-07T12:06:54;40.20;;;27.42;;
32393;SDS011;18853;45.426;9.206;2022-12-07T12:11:59;40.75;;;28.58;;
32393;SDS011;18853;45.426;9.206;2022-12-07T12:25:45;41.17;;;30.02;;
32393;SDS011;18853;45.426;9.206;2022-12-07T12:28:18;44.83;;;30.97;;
32393;SDS011;18853;45.426;9.206;2022-12-07T12:31:10;42.05;;;29.38;;
32393;SDS011;18853;45.426;9.206;2022-12-07T12:33:47;41.20;;;30.00;;
32393;SDS011;18853;45.426;9.206;2022-12-07T12:44:38;46.63;;;30.85;;
32393;SDS011;18853;45.426;9.206;2022-12-07T12:47:02;41.15;;;29.98;;
32393;SDS011;18853;45.426;9.206;2022-12-07T12:51:56;41.42;;;31.02;;
32393;SDS011;18853;45.426;9.206;2022-12-07T12:54:27;41.47;;;29.02;;
32393;SDS011;18853;45.426;9.206;2022-12-07T12:59:37;41.63;;;30.55;;
32393;SDS011;18853;45.426;9.206;2022-12-07T13:13:03;43.13;;;30.17;;
32393;SDS011;18853;45.426;9.206;2022-12-07T13:15:39;41.67;;;30.17;;
32393;SDS011;18853;45.426;9.206;2022-12-07T13:20:58;42.05;;;30.25;;
32393;SDS011;18853;45.426;9.206;2022-12-07T13:31:49;36.92;;;27.00;;
32393;SDS011;18853;45.426;9.206;2022-12-07T13:34:30;35.80;;;26.50;;
32393;SDS011;18853;45.426;9.206;2022-12-07T13:39:49;34.40;;;25.70;;
32393;SDS011;18853;45.426;9.206;2022-12-07T13:42:22;34.67;;;24.95;;
32393;SDS011;18853;45.426;9.206;2022-12-07T13:44:53;33.47;;;25.27;;
32393;SDS011;18853;45.426;9.206;2022-12-07T13:47:30;34.03;;;24.77;;
32393;SDS011;18853;45.426;9.206;2022-12-07T13:49:57;34.45;;;24.30;;
32393;SDS011;18853;45.426;9.206;2022-12-07T13:52:24;31.55;;;24.52;;
32393;SDS011;18853;45.426;9.206;2022-12-07T13:54:59;29.48;;;23.42;;
32393;SDS011;18853;45.426;9.206;2022-12-07T13:57:27;35.90;;;25.63;;
32393;SDS011;18853;45.426;9.206;2022-12-07T13:59:59;32.55;;;24.35;;
32393;SDS011;18853;45.426;9.206;2022-12-07T14:02:30;31.60;;;24.30;;
32393;SDS011;18853;45.426;9.206;2022-12-07T14:05:06;33.38;;;23.85;;
32393;SDS011;18853;45.426;9.206;2022-12-07T14:08:04;31.50;;;24.23;;
32393;SDS011;18853;45.426;9.206;2022-12-07T14:16:00;32.03;;;24.48;;
32393;SDS011;18853;45.426;9.206;2022-12-07T14:18:40;34.33;;;23.95;;
32393;SDS011;18853;45.426;9.206;2022-12-07T14:23:35;32.33;;;24.08;;
32393;SDS011;18853;45.426;9.206;2022-12-07T14:26:15;31.42;;;23.25;;
32393;SDS011;18853;45.426;9.206;2022-12-07T14:28:45;28.98;;;22.88;;
32393;SDS011;18853;45.426;9.206;2022-12-07T14:31:13;30.98;;;23.42;;
32393;SDS011;18853;45.426;9.206;2022-12-07T14:33:40;30.23;;;23.30;;
32393;SDS011;18853;45.426;9.206;2022-12-07T14:36:10;27.65;;;22.75;;
32393;SDS011;18853;45.426;9.206;2022-12-07T14:38:37;31.00;;;23.40;;
32393;SDS011;18853;45.426;9.206;2022-12-07T14:41:03;31.80;;;22.73;;
32393;SDS011;18853;45.426;9.206;2022-12-07T14:43:50;29.25;;;22.88;;
32393;SDS011;18853;45.426;9.206;2022-12-07T14:46:15;29.70;;;23.67;;
32393;SDS011;18853;45.426;9.206;2022-12-07T14:48:41;31.15;;;23.70;;
32393;SDS011;18853;45.426;9.206;2022-12-07T14:51:07;32.92;;;25.45;;
32393;SDS011;18853;45.426;9.206;2022-12-07T14:53:39;30.65;;;24.10;;
32393;SDS011;18853;45.426;9.206;2022-12-07T14:56:09;31.40;;;24.00;;
32393;SDS011;18853;45.426;9.206;2022-12-07T14:58:34;34.42;;;25.63;;
32393;SDS011;18853;45.426;9.206;2022-12-07T15:01:00;32.63;;;24.50;;
32393;SDS011;18853;45.426;9.206;2022-12-07T15:03:26;33.28;;;24.17;;
32393;SDS011;18853;45.426;9.206;2022-12-07T15:05:52;36.08;;;25.25;;
32393;SDS011;18853;45.426;9.206;2022-12-07T15:08:18;34.25;;;25.77;;
32393;SDS011;18853;45.426;9.206;2022-12-07T15:10:43;33.42;;;26.42;;
32393;SDS011;18853;45.426;9.206;2022-12-07T15:13:09;33.40;;;26.08;;
32393;SDS011;18853;45.426;9.206;2022-12-07T15:15:54;31.45;;;24.65;;
32393;SDS011;18853;45.426;9.206;2022-12-07T15:18:20;30.75;;;25.05;;
32393;SDS011;18853;45.426;9.206;2022-12-07T15:20:48;32.97;;;25.45;;
32393;SDS011;18853;45.426;9.206;2022-12-07T15:23:14;32.25;;;25.13;;
32393;SDS011;18853;45.426;9.206;2022-12-07T15:25:41;30.98;;;25.42;;
32393;SDS011;18853;45.426;9.206;2022-12-07T15:28:10;35.05;;;27.42;;
32393;SDS011;18853;45.426;9.206;2022-12-07T15:30:36;36.25;;;28.58;;
32393;SDS011;18853;45.426;9.206;2022-12-07T15:33:03;37.75;;;28.85;;
32393;SDS011;18853;45.426;9.206;2022-12-07T15:35:28;37.28;;;29.15;;
32393;SDS011;18853;45.426;9.206;2022-12-07T15:37:54;34.30;;;28.45;;
32393;SDS011;18853;45.426;9.206;2022-12-07T15:40:20;35.42;;;28.80;;
32393;SDS011;18853;45.426;9.206;2022-12-07T15:42:45;37.15;;;29.25;;
32393;SDS011;18853;45.426;9.206;2022-12-07T15:45:12;38.78;;;29.58;;
32393;SDS011;18853;45.426;9.206;2022-12-07T15:47:42;36.80;;;28.88;;
32393;SDS011;18853;45.426;9.206;2022-12-07T15:50:11;37.17;;;29.23;;
32393;SDS011;18853;45.426;9.206;2022-12-07T15:52:38;38.22;;;29.58;;
32393;SDS011;18853;45.426;9.206;2022-12-07T15:55:04;41.60;;;31.23;;
32393;SDS011;18853;45.426;9.206;2022-12-07T15:57:31;36.65;;;28.92;;
32393;SDS011;18853;45.426;9.206;2022-12-07T15:59:57;39.53;;;30.00;;
32393;SDS011;18853;45.426;9.206;2022-12-07T16:02:24;39.95;;;30.80;;
32393;SDS011;18853;45.426;9.206;2022-12-07T16:04:50;39.28;;;31.70;;
32393;SDS011;18853;45.426;9.206;2022-12-07T16:07:16;40.80;;;30.48;;
32393;SDS011;18853;45.426;9.206;2022-12-07T16:09:43;42.08;;;31.73;;
32393;SDS011;18853;45.426;9.206;2022-12-07T16:12:10;43.22;;;32.10;;
32393;SDS011;18853;45.426;9.206;2022-12-07T16:14:37;40.35;;;31.25;;
32393;SDS011;18853;45.426;9.206;2022-12-07T16:17:03;43.30;;;32.13;;
32393;SDS011;18853;45.426;9.206;2022-12-07T16:19:30;42.80;;;32.97;;
32393;SDS011;18853;45.426;9.206;2022-12-07T16:21:56;44.13;;;32.83;;
32393;SDS011;18853;45.426;9.206;2022-12-07T16:24:22;42.70;;;31.00;;
32393;SDS011;18853;45.426;9.206;2022-12-07T16:26:48;42.95;;;32.33;;
32393;SDS011;18853;45.426;9.206;2022-12-07T16:29:14;41.95;;;32.67;;
32393;SDS011;18853;45.426;9.206;2022-12-07T16:31:40;46.35;;;33.22;;
32393;SDS011;18853;45.426;9.206;2022-12-07T16:34:06;47.78;;;33.03;;
32393;SDS011;18853;45.426;9.206;2022-12-07T16:36:33;49.78;;;35.47;;
32393;SDS011;18853;45.426;9.206;2022-12-07T16:38:59;49.75;;;35.33;;
32393;SDS011;18853;45.426;9.206;2022-12-07T16:41:25;48.78;;;35.85;;
32393;SDS011;18853;45.426;9.206;2022-12-07T16:43:51;52.60;;;36.30;;
32393;SDS011;18853;45.426;9.206;2022-12-07T16:46:17;53.63;;;36.92;;
32393;SDS011;18853;45.426;9.206;2022-12-07T16:48:43;56.13;;;37.92;;
32393;SDS011;18853;45.426;9.206;2022-12-07T16:51:10;53.92;;;37.78;;
32393;SDS011;18853;45.426;9.206;2022-12-07T16:53:37;58.75;;;37.35;;
32393;SDS011;18853;45.426;9.206;2022-12-07T16:56:09;53.13;;;36.90;;
32393;SDS011;18853;45.426;9.206;2022-12-07T16:58:35;53.33;;;36.55;;
32393;SDS011;18853;45.426;9.206;2022-12-07T17:01:08;51.97;;;36.30;;
32393;SDS011;18853;45.426;9.206;2022-12-07T17:03:35;57.58;;;37.55;;
32393;SDS011;18853;45.426;9.206;2022-12-07T17:06:01;52.47;;;37.03;;